Time;durP1;ratioP1;P1;durP2;ratioP2;P2;SDS_P1;SDS_P2;PMS_P1;PMS_P2;Temp;Humidity;BMP_temperature;BMP_pressure;BME280_temperature;BME280_humidity;BME280_pressure;Samples;Min_cycle;Max_cycle;Signal;HPM_P1;HPM_P2
2022/03/16 00:01:14;;;;;;;19.67;12.20;;;;;;;1.44;67.51;98108.28;6218408;22;20176;-88
2022/03/16 00:03:41;;;;;;;20.23;11.57;;;;;;;2.15;67.23;98213.41;6219522;22;20544;-82
2022/03/16 00:06:09;;;;;;;20.53;12.43;;;;;;;1.67;67.42;98130.56;6244469;22;20157;-85
2022/03/16 00:08:36;;;;;;;22.07;11.87;;;;;;;2.02;67.51;98211.66;6244620;22;20310;-87
2022/03/16 00:11:04;;;;;;;18.50;11.43;;;;;;;1.59;67.76;98144.09;6218932;22;20569;-84
2022/03/16 00:13:32;;;;;;;18.97;12.07;;;;;;;1.34;68.14;98097.16;6219882;22;20196;-88
2022/03/16 00:15:59;;;;;;;18.57;11.77;;;;;;;1.48;68.78;98120.22;6196953;22;20210;-84
2022/03/16 00:18:26;;;;;;;16.10;10.67;;;;;;;1.94;68.12;98193.72;6245620;22;20173;-83
2022/03/16 00:20:53;;;;;;;18.17;10.97;;;;;;;1.72;69.06;98181.66;6247797;22;20168;-85
2022/03/16 00:23:24;;;;;;;16.87;10.83;;;;;;;1.73;68.70;98208.91;6222297;22;20164;-84
2022/03/16 00:25:53;;;;;;;19.27;11.13;;;;;;;1.33;69.32;98156.69;6249255;22;20214;-86
2022/03/16 00:28:21;;;;;;;16.83;11.03;;;;;;;1.52;69.65;98176.41;6222612;22;20595;-84
2022/03/16 00:30:49;;;;;;;17.53;11.10;;;;;;;1.61;70.44;98206.22;6224847;22;20222;-85
2022/03/16 00:33:19;;;;;;;18.13;10.77;;;;;;;1.75;69.75;98206.34;6222982;22;20247;-88
2022/03/16 00:35:46;;;;;;;17.83;11.33;;;;;;;1.59;69.19;98155.19;6219949;22;20269;-86
2022/03/16 00:38:16;;;;;;;19.47;11.23;;;;;;;2.00;69.55;98182.69;6221686;22;20191;-83
2022/03/16 00:40:46;;;;;;;22.07;13.40;;;;;;;1.67;68.28;98072.69;6195569;22;20501;-83
2022/03/16 00:43:14;;;;;;;22.23;13.27;;;;;;;1.99;67.87;98081.34;6220696;22;20218;-87
2022/03/16 00:45:42;;;;;;;22.27;14.30;;;;;;;2.09;67.20;98080.56;6244945;22;20160;-87
2022/03/16 00:48:10;;;;;;;26.33;17.87;;;;;;;2.33;67.44;98099.38;6219364;22;20635;-83
2022/03/16 00:50:40;;;;;;;24.43;14.77;;;;;;;2.07;67.00;98057.56;6219241;22;20165;-85
2022/03/16 00:53:08;;;;;;;25.97;14.60;;;;;;;2.21;67.90;98114.66;6243985;22;20165;-87
2022/03/16 00:55:35;;;;;;;23.37;14.23;;;;;;;2.03;67.68;98076.28;6193475;22;20668;-84
2022/03/16 00:58:02;;;;;;;23.60;14.67;;;;;;;2.20;68.18;98099.34;6243888;22;20175;-88
2022/03/16 01:00:33;;;;;;;26.90;15.20;;;;;;;2.53;67.17;98142.91;6244661;22;20183;-89
2022/03/16 01:03:01;;;;;;;18.63;12.90;;;;;;;2.11;68.21;98078.84;6243472;22;20180;-84
2022/03/16 01:05:28;;;;;;;21.47;13.30;;;;;;;2.00;67.38;98060.09;6220893;22;20804;-86
2022/03/16 01:07:57;;;;;;;24.20;13.87;;;;;;;2.24;67.37;98085.72;6246511;22;20175;-85
2022/03/16 01:10:24;;;;;;;21.27;13.97;;;;;;;2.10;67.41;98057.56;6194131;22;20625;-85
2022/03/16 01:12:53;;;;;;;22.07;13.40;;;;;;;1.79;67.39;98019.16;6244508;22;20259;-86
2022/03/16 01:15:23;;;;;;;21.23;13.10;;;;;;;2.56;67.44;98111.38;6193516;22;20219;-85
2022/03/16 01:17:52;;;;;;;22.17;12.90;;;;;;;2.57;66.97;98118.19;6270062;22;20175;-88
2022/03/16 01:20:22;;;;;;;20.40;12.97;;;;;;;2.44;67.44;98079.81;6243752;22;20168;-86
2022/03/16 01:22:49;;;;;;;23.07;12.87;;;;;;;2.16;67.68;98046.53;6244379;22;20238;-86
2022/03/16 01:25:18;;;;;;;20.23;12.70;;;;;;;1.93;68.41;98054.09;6218162;22;20594;-88
2022/03/16 01:27:47;;;;;;;18.60;13.13;;;;;;;1.85;69.70;98063.44;6218887;22;20234;-84
2022/03/16 01:30:15;;;;;;;19.30;12.93;;;;;;;1.46;69.63;98009.63;6270849;22;20173;-84
2022/03/16 01:32:45;;;;;;;20.90;13.47;;;;;;;1.62;69.09;98040.34;6218664;22;20169;-85
2022/03/16 01:35:12;;;;;;;19.03;11.77;;;;;;;1.59;70.08;98052.22;6243844;22;20175;-84
2022/03/16 01:37:45;;;;;;;19.57;11.63;;;;;;;1.52;70.20;98047.94;6194008;22;20612;-91
2022/03/16 01:40:14;;;;;;;19.30;11.47;;;;;;;1.80;70.07;98107.66;6272067;22;20161;-87
2022/03/16 01:42:41;;;;;;;18.63;11.63;;;;;;;1.63;69.39;98089.69;6218118;22;20607;-85
2022/03/16 01:45:09;;;;;;;17.77;10.37;;;;;;;1.36;70.37;98069.94;6193922;22;20575;-87
2022/03/16 01:47:36;;;;;;;17.23;10.30;;;;;;;1.23;70.54;98052.88;6218462;22;20171;-86
2022/03/16 01:50:04;;;;;;;16.83;11.23;;;;;;;1.31;70.90;98061.41;6218716;22;20169;-90
2022/03/16 01:52:34;;;;;;;15.73;11.50;;;;;;;1.58;71.42;98099.88;6193654;22;20180;-88
2022/03/16 01:55:05;;;;;;;16.13;10.67;;;;;;;1.08;71.00;97985.56;6242811;22;20621;-88
2022/03/16 01:57:40;;;;;;;19.07;11.10;;;;;;;1.19;70.82;97992.47;6244085;22;20169;-88
2022/03/16 02:00:09;;;;;;;18.17;11.33;;;;;;;1.59;70.82;98025.00;6243007;22;20164;-86
2022/03/16 02:02:42;;;;;;;15.80;10.40;;;;;;;1.86;70.02;98056.59;6220152;22;20172;-87
2022/03/16 02:05:12;;;;;;;17.90;10.53;;;;;;;1.77;70.25;98057.44;6246295;22;20230;-85
2022/03/16 02:07:41;;;;;;;16.60;9.63;;;;;;;1.85;70.49;98052.38;6218917;22;20625;-87
2022/03/16 02:10:09;;;;;;;16.93;10.77;;;;;;;1.87;71.01;98048.13;6193197;22;20624;-83
2022/03/16 02:12:50;;;;;;;14.67;9.80;;;;;;;1.63;70.09;98019.06;6242509;22;20247;-90
2022/03/16 02:15:21;;;;;;;17.80;10.87;;;;;;;1.73;69.41;98003.81;6218095;22;20217;-90
2022/03/16 02:17:55;;;;;;;17.40;10.13;;;;;;;1.14;69.75;97920.16;6218467;22;20169;-91
2022/03/16 02:20:27;;;;;;;18.03;10.70;;;;;;;1.80;69.73;98031.03;6218179;22;20176;-84
2022/03/16 02:23:06;;;;;;;18.10;10.83;;;;;;;1.87;69.41;98022.56;6194165;22;20654;-88
2022/03/16 02:25:49;;;;;;;20.97;12.13;;;;;;;1.96;69.04;98007.31;6243715;22;20184;-86
2022/03/16 02:28:18;;;;;;;15.60;10.60;;;;;;;1.65;69.11;97957.81;6220246;22;20495;-88
2022/03/16 02:30:47;;;;;;;16.57;11.07;;;;;;;2.06;68.59;98004.75;6251272;22;20541;-86
2022/03/16 02:33:14;;;;;;;16.93;10.27;;;;;;;2.22;69.03;98013.31;6209113;22;20247;-86
2022/03/16 02:35:42;;;;;;;18.17;11.27;;;;;;;2.03;68.70;97983.47;6212029;22;20201;-84
2022/03/16 02:38:11;;;;;;;15.40;11.13;;;;;;;2.17;67.53;97992.00;6237044;22;20231;-90
2022/03/16 02:40:38;;;;;;;16.37;10.97;;;;;;;2.28;67.72;97973.31;6262391;22;20168;-82
2022/03/16 02:43:05;;;;;;;13.97;9.70;;;;;;;1.94;67.55;97904.28;6234088;22;20160;-86
2022/03/16 02:45:35;;;;;;;14.63;9.63;;;;;;;1.90;67.87;97910.22;6213055;22;20172;-85
2022/03/16 02:48:03;;;;;;;16.17;11.03;;;;;;;2.15;67.23;97948.59;6259166;22;20168;-86
2022/03/16 02:50:31;;;;;;;15.23;9.37;;;;;;;2.16;67.22;97916.22;6230314;22;20164;-85
2022/03/16 02:53:01;;;;;;;14.17;9.70;;;;;;;2.34;66.96;97906.88;6193928;22;20204;-88
2022/03/16 02:55:45;;;;;;;15.27;9.80;;;;;;;2.58;65.48;97912.84;6196828;22;20214;-83
2022/03/16 02:58:16;;;;;;;20.80;10.60;;;;;;;2.43;65.28;97888.97;6246918;22;20636;-87
2022/03/16 03:00:49;;;;;;;15.53;10.47;;;;;;;2.92;65.13;97988.69;6216345;22;20587;-87
2022/03/16 03:03:17;;;;;;;29.17;17.33;;;;;;;3.00;65.22;97985.25;6218441;22;20169;-85
2022/03/16 03:05:45;;;;;;;20.13;13.20;;;;;;;2.95;65.22;97951.16;6242602;22;20515;-89
2022/03/16 03:08:12;;;;;;;17.70;12.23;;;;;;;2.71;65.66;97935.84;6217532;22;20168;-87
2022/03/16 03:10:39;;;;;;;19.23;12.00;;;;;;;2.75;65.46;97952.88;6192949;22;20168;-87
2022/03/16 03:13:07;;;;;;;18.90;12.93;;;;;;;2.72;66.06;97978.44;6218738;22;20247;-85
2022/03/16 03:15:38;;;;;;;16.77;11.20;;;;;;;2.58;66.56;97975.03;6244210;22;20172;-85
2022/03/16 03:18:05;;;;;;;18.37;11.47;;;;;;;2.55;67.48;97971.63;6219466;22;20349;-86
2022/03/16 03:20:32;;;;;;;19.67;11.07;;;;;;;2.66;66.90;97983.56;6247552;22;20179;-89
2022/03/16 03:23:00;;;;;;;17.67;10.37;;;;;;;2.42;66.88;97942.66;6219310;22;20164;-85
2022/03/16 03:25:27;;;;;;;15.17;10.47;;;;;;;2.50;67.17;97974.19;6218407;22;20177;-85
2022/03/16 03:27:56;;;;;;;15.53;9.80;;;;;;;2.18;66.61;97911.97;6218414;22;20239;-88
2022/03/16 03:30:24;;;;;;;15.00;10.17;;;;;;;1.95;66.64;97888.97;6218007;22;20200;-88
2022/03/16 03:32:52;;;;;;;15.43;9.50;;;;;;;2.05;67.40;97911.09;6270199;22;20165;-90
2022/03/16 03:35:19;;;;;;;16.97;10.80;;;;;;;2.29;67.59;97940.91;6192038;22;20169;-89
2022/03/16 03:37:47;;;;;;;14.43;9.60;;;;;;;2.20;66.44;97907.72;6243057;22;20224;-85
2022/03/16 03:40:18;;;;;;;14.00;8.97;;;;;;;1.99;67.11;97895.78;6192384;22;20224;-87
2022/03/16 03:42:46;;;;;;;17.47;10.43;;;;;;;2.24;66.28;97919.66;6243526;22;20192;-88
2022/03/16 03:45:15;;;;;;;18.30;11.23;;;;;;;2.70;67.00;97969.91;6193037;22;20180;-86
2022/03/16 03:47:42;;;;;;;20.17;11.50;;;;;;;2.46;66.37;97894.09;6217146;22;20508;-89
2022/03/16 03:50:09;;;;;;;14.53;9.77;;;;;;;2.61;65.79;97939.25;6243173;22;20632;-86
2022/03/16 03:52:37;;;;;;;14.83;9.87;;;;;;;2.37;65.78;97893.25;6218473;22;20168;-92
2022/03/16 03:55:04;;;;;;;13.73;8.80;;;;;;;2.37;65.90;97891.53;6194158;22;20725;-86
2022/03/16 03:57:32;;;;;;;12.87;9.03;;;;;;;2.51;66.25;97916.25;6191214;22;20250;-86
2022/03/16 03:59:59;;;;;;;12.63;8.87;;;;;;;2.29;65.98;97869.38;6242728;22;20255;-84
2022/03/16 04:02:27;;;;;;;12.20;8.77;;;;;;;2.73;66.01;97911.13;6241947;22;20172;-87
2022/03/16 04:04:55;;;;;;;14.73;9.07;;;;;;;2.98;64.78;97930.69;6192601;22;20174;-87
2022/03/16 04:07:23;;;;;;;12.53;9.37;;;;;;;2.99;65.17;97945.16;6242081;22;20173;-91
2022/03/16 04:09:53;;;;;;;14.23;8.67;;;;;;;3.01;64.78;97947.75;6217520;22;20172;-83
2022/03/16 04:12:21;;;;;;;13.37;8.43;;;;;;;2.99;64.72;97916.16;6217330;22;20165;-89
2022/03/16 04:14:49;;;;;;;13.17;9.10;;;;;;;2.99;63.77;97914.47;6191877;22;20255;-87
2022/03/16 04:17:21;;;;;;;16.77;9.87;;;;;;;3.03;64.16;97915.34;6243467;22;20200;-85
2022/03/16 04:19:49;;;;;;;20.60;11.90;;;;;;;3.08;65.63;97922.13;6192939;22;20196;-88
2022/03/16 04:22:17;;;;;;;25.17;12.70;;;;;;;2.64;65.01;97826.75;6244877;22;20658;-88
2022/03/16 04:25:27;;;;;;;25.10;14.40;;;;;;;3.34;64.64;97944.25;6219834;22;20184;-84
2022/03/16 04:28:34;;;;;;;21.10;14.60;;;;;;;3.33;65.42;97940.84;6271213;22;20166;-92
2022/03/16 04:32:03;;;;;;;25.07;14.30;;;;;;;3.25;65.42;97928.06;6218068;22;20226;-90
2022/03/16 04:35:24;;;;;;;27.50;17.17;;;;;;;3.05;65.21;97942.59;6197424;22;20264;-87
2022/03/16 04:38:45;;;;;;;21.57;15.13;;;;;;;2.82;66.95;97928.16;6242492;22;20176;-86
2022/03/16 04:42:05;;;;;;;21.47;13.43;;;;;;;2.66;67.51;97929.84;6220385;22;20201;-84
2022/03/16 04:45:26;;;;;;;23.93;12.50;;;;;;;2.70;67.56;97936.66;6269757;22;20170;-88
2022/03/16 04:48:47;;;;;;;30.57;15.37;;;;;;;2.63;68.79;97922.22;6245288;22;20651;-87
2022/03/16 04:52:08;;;;;;;23.47;16.13;;;;;;;2.74;67.81;97923.03;6268694;22;20514;-88
2022/03/16 04:55:28;;;;;;;30.10;16.47;;;;;;;2.85;68.02;97918.75;6267164;22;20196;-87
2022/03/16 04:58:49;;;;;;;30.43;15.70;;;;;;;2.87;67.03;97926.44;6220464;22;20643;-83
2022/03/16 05:01:31;;;;;;;28.27;17.03;;;;;;;2.56;67.29;97860.84;6244368;22;20172;-89
2022/03/16 05:03:59;;;;;;;33.60;18.13;;;;;;;2.83;67.51;97910.25;6246423;22;20620;-83
2022/03/16 05:06:30;;;;;;;22.73;14.97;;;;;;;2.68;68.45;97905.13;6222885;22;20169;-89
2022/03/16 05:09:14;;;;;;;20.33;12.93;;;;;;;2.07;68.16;97832.78;6273440;22;20560;-88
2022/03/16 05:11:42;;;;;;;21.33;13.63;;;;;;;1.99;68.43;97787.66;6273026;22;20222;-90
2022/03/16 05:14:10;;;;;;;16.80;11.17;;;;;;;2.61;67.93;97889.81;6244594;22;20172;-89
2022/03/16 05:16:40;;;;;;;27.53;13.80;;;;;;;2.59;68.33;97881.31;6194332;22;20299;-87
2022/03/16 05:19:08;;;;;;;21.30;12.87;;;;;;;2.69;67.50;97860.84;6271198;22;20639;-82
2022/03/16 05:21:36;;;;;;;24.20;13.77;;;;;;;2.73;66.46;97848.88;6245099;22;20160;-90
2022/03/16 05:24:04;;;;;;;18.73;13.23;;;;;;;2.76;66.75;97857.38;6244890;22;20168;-88
2022/03/16 05:26:32;;;;;;;18.10;12.47;;;;;;;2.59;66.64;97827.63;6244307;22;20223;-93
2022/03/16 05:29:00;;;;;;;19.13;12.93;;;;;;;2.62;66.90;97850.63;6231973;22;20183;-84
2022/03/16 05:31:28;;;;;;;32.47;15.10;;;;;;;2.81;67.03;97868.47;6259562;22;20179;-91
2022/03/16 05:33:56;;;;;;;33.57;18.60;;;;;;;2.99;66.45;97891.44;6256123;22;20301;-87
2022/03/16 05:36:26;;;;;;;47.47;24.70;;;;;;;2.80;66.24;97837.78;6208558;22;20660;-88
2022/03/16 05:38:53;;;;;;;35.90;22.13;;;;;;;2.63;65.61;97819.94;6259303;22;20165;-91
2022/03/16 05:41:21;;;;;;;37.63;20.03;;;;;;;2.82;66.48;97867.63;6257704;22;20240;-86
2022/03/16 05:43:50;;;;;;;36.33;21.23;;;;;;;2.84;66.60;97886.38;6229258;22;20173;-89
2022/03/16 05:46:18;;;;;;;30.93;18.77;;;;;;;2.77;68.02;97891.50;6229709;22;20168;-88
2022/03/16 05:48:47;;;;;;;37.47;19.20;;;;;;;2.68;67.58;97887.25;6229937;22;20544;-87
2022/03/16 05:51:15;;;;;;;35.10;20.27;;;;;;;2.41;68.09;97838.72;6250513;22;20168;-88
2022/03/16 05:53:43;;;;;;;36.60;19.43;;;;;;;2.72;68.55;97891.50;6222856;22;20538;-83
2022/03/16 05:56:11;;;;;;;43.83;22.93;;;;;;;2.03;68.07;97776.56;6273730;22;20164;-89
2022/03/16 05:58:39;;;;;;;35.27;21.07;;;;;;;2.49;68.42;97876.19;6221715;22;20229;-83
2022/03/16 06:01:06;;;;;;;29.60;16.63;;;;;;;1.86;68.62;97761.25;6273297;22;20167;-85
2022/03/16 06:03:34;;;;;;;21.00;12.20;;;;;;;2.52;68.81;97898.34;6246302;22;20172;-90
2022/03/16 06:06:03;;;;;;;29.03;15.73;;;;;;;2.15;69.21;97831.06;6195324;22;20183;-86
2022/03/16 06:08:30;;;;;;;20.30;12.30;;;;;;;2.45;69.12;97891.53;6247224;22;20628;-86
2022/03/16 06:10:59;;;;;;;17.33;11.50;;;;;;;1.82;68.81;97776.56;6272707;22;20161;-89
2022/03/16 06:13:27;;;;;;;16.67;11.33;;;;;;;1.86;68.12;97784.25;6245459;22;20259;-89
2022/03/16 06:15:57;;;;;;;16.07;11.17;;;;;;;2.26;68.48;97848.94;6274070;22;20226;-90
2022/03/16 06:18:26;;;;;;;16.53;10.97;;;;;;;2.47;68.57;97894.94;6243629;22;20204;-85
2022/03/16 06:20:53;;;;;;;16.30;10.83;;;;;;;2.17;68.76;97849.81;6244053;22;20759;-85
2022/03/16 06:23:22;;;;;;;20.83;12.37;;;;;;;2.09;68.38;97805.53;6271150;22;20246;-90
2022/03/16 06:25:51;;;;;;;28.60;16.03;;;;;;;2.65;68.03;97864.25;6271650;22;20478;-86
2022/03/16 06:28:19;;;;;;;23.43;13.70;;;;;;;2.36;67.14;97784.22;6220936;22;20176;-90
2022/03/16 06:30:46;;;;;;;24.97;15.93;;;;;;;2.37;66.61;97791.03;6218305;22;20182;-83
2022/03/16 06:33:15;;;;;;;30.33;15.77;;;;;;;2.85;66.45;97826.69;6273839;22;20522;-85
2022/03/16 06:35:42;;;;;;;28.80;15.83;;;;;;;3.29;66.18;97865.78;6273204;22;20157;-92
2022/03/16 06:38:13;;;;;;;33.67;17.37;;;;;;;3.43;65.49;97875.09;6245121;22;20667;-86
2022/03/16 06:40:41;;;;;;;40.83;19.73;;;;;;;3.20;65.24;97812.06;6218067;22;20483;-87
2022/03/16 06:43:09;;;;;;;38.33;18.10;;;;;;;3.64;65.05;97846.81;6244157;22;20172;-85
2022/03/16 06:45:36;;;;;;;46.63;18.47;;;;;;;3.64;64.69;97839.13;6220800;22;20172;-87
2022/03/16 06:48:04;;;;;;;36.97;15.97;;;;;;;3.62;64.19;97833.19;6273314;22;20507;-88
2022/03/16 06:50:31;;;;;;;45.83;21.87;;;;;;;3.91;64.35;97872.28;6273602;22;20243;-90
2022/03/16 06:52:59;;;;;;;38.50;18.67;;;;;;;3.70;64.05;97821.16;6197148;22;20189;-87
2022/03/16 06:55:29;;;;;;;43.23;19.47;;;;;;;3.84;63.53;97844.97;6247912;22;20217;-90
2022/03/16 06:58:01;;;;;;;31.37;17.00;;;;;;;3.63;62.42;97801.56;6224257;22;20739;-92
2022/03/16 07:00:28;;;;;;;36.60;17.10;;;;;;;3.75;62.90;97811.75;6276391;22;20629;-88
2022/03/16 07:03:01;;;;;;;37.07;18.13;;;;;;;4.05;62.24;97834.59;6246123;22;20890;-90
2022/03/16 07:05:36;;;;;;;33.27;16.30;;;;;;;3.69;62.51;97799.81;6220340;22;20200;-90
2022/03/16 07:08:06;;;;;;;29.40;14.97;;;;;;;4.08;62.18;97870.47;6243656;22;20284;-86
2022/03/16 07:10:35;;;;;;;30.47;15.40;;;;;;;4.09;62.44;97856.75;6243133;22;20171;-89
2022/03/16 07:13:10;;;;;;;70.07;38.67;;;;;;;4.08;64.36;97850.78;6221693;22;20763;-89
2022/03/16 07:15:42;;;;;;;91.80;46.77;;;;;;;3.88;66.25;97862.88;6218455;22;20200;-89
2022/03/16 07:18:11;;;;;;;79.27;42.60;;;;;;;3.30;66.09;97762.53;6272504;22;20193;-91
2022/03/16 07:20:41;;;;;;;69.40;37.40;;;;;;;3.77;65.33;97812.59;6244423;22;20185;-90
2022/03/16 07:23:14;;;;;;;63.00;35.07;;;;;;;3.93;65.05;97832.97;6245453;22;20672;-89
2022/03/16 07:25:48;;;;;;;64.57;35.83;;;;;;;3.58;64.86;97764.91;6246564;22;20193;-88
2022/03/16 07:28:19;;;;;;;60.90;37.33;;;;;;;3.99;64.77;97824.38;6221987;22;20162;-85
2022/03/16 07:30:47;;;;;;;60.57;38.10;;;;;;;4.13;62.74;97838.78;6275232;22;20200;-88
2022/03/16 07:33:16;;;;;;;66.97;42.67;;;;;;;3.99;62.63;97798.75;6221650;22;20174;-88
2022/03/16 07:35:45;;;;;;;75.33;42.90;;;;;;;4.20;62.31;97803.72;6226861;22;20520;-90
2022/03/16 07:38:14;;;;;;;71.30;46.93;;;;;;;4.20;62.82;97788.34;6295657;22;20505;-94
2022/03/16 07:40:44;;;;;;;83.43;47.87;;;;;;;4.55;62.30;97845.28;6270894;22;20175;-90
2022/03/16 07:43:20;;;;;;;65.33;42.40;;;;;;;4.52;62.31;97836.75;6286273;22;20189;-89
2022/03/16 07:46:03;;;;;;;59.70;36.33;;;;;;;3.96;62.20;97762.91;6236939;22;20175;-80
2022/03/16 07:48:36;;;;;;;55.00;28.87;;;;;;;4.23;62.60;97818.19;6259491;22;20643;-90
2022/03/16 07:51:06;;;;;;;44.67;25.30;;;;;;;3.47;62.98;97741.09;6225676;22;20536;-88
2022/03/16 07:53:34;;;;;;;43.57;22.87;;;;;;;4.19;62.14;97827.63;6223010;22;20254;-88
2022/03/16 07:56:07;;;;;;;32.80;19.73;;;;;;;3.23;63.48;97739.53;6223335;22;20174;-90
2022/03/16 07:58:49;;;;;;;35.87;21.17;;;;;;;3.01;66.17;97754.16;6256607;22;20204;-88
2022/03/16 08:02:37;;;;;;;35.73;22.33;;;;;;;3.85;66.16;97829.59;6211375;22;20170;-87
2022/03/16 08:05:33;;;;;;;38.20;23.33;;;;;;;3.95;65.92;97804.78;6207288;22;20180;-88
2022/03/16 08:08:22;;;;;;;37.70;21.90;;;;;;;4.05;63.64;97835.44;6229116;22;20177;-83
2022/03/16 08:10:59;;;;;;;26.33;15.90;;;;;;;3.64;63.69;97795.59;6253618;22;20173;-82
2022/03/16 08:13:31;;;;;;;23.93;16.70;;;;;;;3.93;63.01;97797.09;6206088;22;20663;-89
2022/03/16 08:16:00;;;;;;;30.60;16.60;;;;;;;3.97;61.71;97780.00;6221957;22;20312;-84
2022/03/16 08:18:29;;;;;;;25.80;15.73;;;;;;;4.00;60.28;97750.06;6196283;22;20201;-89
2022/03/16 08:21:11;;;;;;;22.80;14.17;;;;;;;4.34;61.15;97786.50;6251446;22;20276;-85
2022/03/16 08:23:41;;;;;;;23.33;14.20;;;;;;;4.24;62.12;97763.53;6219599;22;20626;-87
2022/03/16 08:26:11;;;;;;;23.60;14.20;;;;;;;4.67;62.08;97811.81;6249616;22;20567;-89
2022/03/16 08:28:40;;;;;;;25.77;15.97;;;;;;;4.49;61.52;97758.13;6216127;22;20202;-87
2022/03/16 08:31:39;;;;;;;25.67;15.53;;;;;;;4.12;62.81;97713.25;6225638;22;20545;-83
2022/03/16 08:34:07;;;;;;;22.37;14.90;;;;;;;4.30;62.33;97727.56;6220746;22;20619;-83
2022/03/16 08:36:42;;;;;;;23.27;15.17;;;;;;;4.49;62.58;97778.63;6271203;22;20172;-90
2022/03/16 08:39:11;;;;;;;21.70;14.00;;;;;;;4.49;62.13;97734.22;6246767;22;20246;-86
2022/03/16 08:41:40;;;;;;;26.63;15.70;;;;;;;4.54;62.49;97761.50;6246667;22;20186;-88
2022/03/16 08:44:12;;;;;;;27.20;16.17;;;;;;;4.37;62.70;97745.44;6247066;22;20200;-90
2022/03/16 08:46:39;;;;;;;31.80;18.90;;;;;;;4.24;63.49;97723.38;6220350;22;20215;-88
2022/03/16 08:49:09;;;;;;;35.20;22.13;;;;;;;4.97;62.98;97808.91;6246451;22;20159;-90
2022/03/16 08:51:39;;;;;;;32.87;21.03;;;;;;;5.12;63.27;97802.75;6219424;22;20175;-86
2022/03/16 08:54:08;;;;;;;29.73;18.60;;;;;;;4.79;63.34;97759.50;6240508;23;20657;-83
2022/03/16 08:56:35;;;;;;;28.73;18.80;;;;;;;4.52;63.52;97745.28;6218447;22;20698;-88
2022/03/16 08:59:04;;;;;;;28.00;18.47;;;;;;;4.81;62.99;97753.50;6218930;22;20197;-90
2022/03/16 09:01:31;;;;;;;32.60;17.50;;;;;;;4.85;61.79;97729.50;6220132;22;20220;-85
2022/03/16 09:03:59;;;;;;;26.30;16.57;;;;;;;5.11;61.22;97777.09;6218654;22;20276;-88
2022/03/16 09:06:28;;;;;;;27.77;16.77;;;;;;;5.11;61.06;97767.66;6245643;22;20197;-85
2022/03/16 09:08:59;;;;;;;26.50;17.67;;;;;;;5.07;60.42;97778.81;6243921;22;20190;-89
2022/03/16 09:11:29;;;;;;;26.50;15.47;;;;;;;5.22;60.07;97788.91;6246004;22;20165;-88
2022/03/16 09:13:57;;;;;;;25.57;16.53;;;;;;;5.28;59.82;97782.84;6272878;22;20173;-88
2022/03/16 09:16:40;;;;;;;30.20;19.03;;;;;;;4.87;60.51;97732.03;6271222;22;20197;-90
2022/03/16 09:19:22;;;;;;;29.67;20.00;;;;;;;4.52;59.41;97701.69;6248852;22;20165;-85
2022/03/16 09:21:50;;;;;;;31.43;18.70;;;;;;;5.11;59.98;97777.91;6194705;22;20170;-87
2022/03/16 09:24:19;;;;;;;34.37;20.47;;;;;;;4.72;60.77;97766.41;6226899;22;20524;-86
2022/03/16 09:26:47;;;;;;;24.37;16.20;;;;;;;4.65;58.92;97744.28;6244959;22;20173;-85
2022/03/16 09:29:16;;;;;;;31.40;18.10;;;;;;;5.15;58.20;97768.50;6217059;22;20169;-88
2022/03/16 09:31:44;;;;;;;24.57;15.23;;;;;;;4.93;56.71;97722.56;6220658;22;20186;-86
2022/03/16 09:34:13;;;;;;;25.30;15.97;;;;;;;5.08;57.44;97751.44;6270654;22;20553;-86
2022/03/16 09:36:45;;;;;;;24.03;14.50;;;;;;;4.73;56.97;97673.22;6245085;22;20189;-87
2022/03/16 09:39:19;;;;;;;25.80;14.40;;;;;;;5.03;56.11;97691.66;6243908;22;20171;-86
2022/03/16 09:41:47;;;;;;;27.57;17.13;;;;;;;5.19;56.00;97682.84;6245176;22;20175;-88
2022/03/16 09:44:15;;;;;;;24.80;15.43;;;;;;;5.38;55.59;97666.31;6245060;22;20167;-87
2022/03/16 09:46:44;;;;;;;26.47;16.93;;;;;;;5.97;56.41;97755.31;6220240;22;20166;-87
2022/03/16 09:49:14;;;;;;;28.83;17.30;;;;;;;5.94;54.88;97712.50;6246440;22;20175;-88
2022/03/16 09:51:43;;;;;;;22.53;15.37;;;;;;;6.36;54.45;97752.94;6275581;22;20606;-89
2022/03/16 09:54:12;;;;;;;26.60;16.67;;;;;;;5.98;54.99;97700.44;6250150;22;20193;-88
2022/03/16 09:56:40;;;;;;;24.27;15.33;;;;;;;5.96;55.55;97697.06;6245998;22;20176;-85
2022/03/16 09:59:09;;;;;;;18.27;12.07;;;;;;;5.83;56.59;97683.56;6246604;22;20257;-87
2022/03/16 10:01:39;;;;;;;19.10;12.00;;;;;;;5.55;55.81;97642.03;6272951;22;20178;-89
2022/03/16 10:04:13;;;;;;;25.03;14.83;;;;;;;6.40;55.88;97749.41;6222597;22;20168;-86
2022/03/16 10:06:42;;;;;;;24.30;13.17;;;;;;;6.47;56.07;97747.59;6274881;22;20217;-87
2022/03/16 10:15:13;;;;;;;18.87;13.60;;;;;;;6.28;54.61;97679.34;6273891;22;20175;-89
2022/03/16 10:17:47;;;;;;;21.07;12.73;;;;;;;6.32;54.86;97699.84;6254361;22;20199;-88
2022/03/16 10:20:26;;;;;;;19.40;12.77;;;;;;;6.41;54.75;97734.81;6288606;22;20171;-84
2022/03/16 10:23:03;;;;;;;20.57;12.67;;;;;;;5.94;53.61;97644.81;6232626;22;20167;-92
2022/03/16 10:25:38;;;;;;;15.43;10.80;;;;;;;6.04;53.03;97666.94;6258360;22;20201;-88
2022/03/16 10:28:17;;;;;;;21.20;12.03;;;;;;;6.04;55.17;97667.78;6258258;22;20181;-90
2022/03/16 10:31:19;;;;;;;18.70;12.73;;;;;;;6.42;54.55;97736.53;6254506;22;20228;-88
2022/03/16 10:33:53;;;;;;;20.37;12.23;;;;;;;6.10;54.95;97656.56;6226343;22;20285;-85
2022/03/16 10:36:28;;;;;;;21.63;13.70;;;;;;;6.24;53.96;97654.56;6274910;22;20657;-83
2022/03/16 10:39:05;;;;;;;24.27;15.97;;;;;;;6.17;53.80;97633.25;6272499;22;20256;-84
2022/03/16 10:47:26;;;;;;;24.70;14.63;;;;;;;6.21;53.54;97655.47;6244321;22;20195;-89
2022/03/16 10:50:07;;;;;;;25.13;15.67;;;;;;;6.45;52.89;97680.72;6193230;22;20509;-82
2022/03/16 10:52:41;;;;;;;25.20;15.40;;;;;;;6.55;52.84;97682.22;6244743;22;20209;-83
2022/03/16 10:55:12;;;;;;;24.07;14.03;;;;;;;6.44;52.19;97665.31;6268558;22;20283;-83
2022/03/16 10:57:42;;;;;;;19.53;13.63;;;;;;;6.30;52.70;97626.16;6270078;22;20207;-83
2022/03/16 11:00:12;;;;;;;24.30;15.23;;;;;;;6.89;53.13;97703.00;6216978;22;20179;-79
2022/03/16 11:02:42;;;;;;;28.20;16.07;;;;;;;6.86;53.37;97697.06;6241373;22;20169;-86
2022/03/16 11:05:11;;;;;;;30.67;18.17;;;;;;;6.97;51.75;97695.09;6268940;22;20624;-82
2022/03/16 11:07:43;;;;;;;22.87;15.73;;;;;;;6.91;52.44;97679.78;6241205;22;20165;-84
2022/03/16 11:10:11;;;;;;;25.97;16.07;;;;;;;6.92;52.76;97684.06;6219513;22;20205;-85
2022/03/16 11:15:26;;;;;;;29.27;16.60;;;;;;;6.96;52.38;97667.66;6217290;22;20252;-81
2022/03/16 11:17:55;;;;;;;30.83;19.93;;;;;;;7.07;52.49;97681.13;6242908;22;20204;-80
2022/03/16 11:20:32;;;;;;;28.73;18.10;;;;;;;7.05;52.25;97675.19;6241097;22;20182;-83
2022/03/16 11:26:05;;;;;;;33.40;21.33;;;;;;;7.17;52.70;97677.50;6242513;22;20164;-80
2022/03/16 11:28:59;;;;;;;35.83;19.93;;;;;;;7.30;52.68;97671.19;6217667;22;20175;-84
2022/03/16 11:31:34;;;;;;;32.40;20.03;;;;;;;7.17;52.16;97656.91;6245280;22;20639;-83
2022/03/16 11:34:15;;;;;;;33.33;20.57;;;;;;;7.35;52.25;97671.94;6250038;22;20193;-82
2022/03/16 11:37:14;;;;;;;30.20;18.03;;;;;;;7.30;52.71;97668.59;6204513;22;20183;-83
2022/03/16 11:40:09;;;;;;;34.90;20.20;;;;;;;7.23;52.52;97649.84;6260562;22;20165;-86
2022/03/16 11:43:05;;;;;;;28.37;18.53;;;;;;;7.22;52.03;97655.06;6246206;22;20168;-87
2022/03/16 11:45:43;;;;;;;35.60;18.77;;;;;;;7.29;52.42;97652.28;6251793;22;20165;-82
2022/03/16 11:48:36;;;;;;;31.17;19.90;;;;;;;7.27;53.09;97648.91;6248328;22;20240;-89
2022/03/16 11:51:19;;;;;;;30.70;19.00;;;;;;;7.32;52.78;97643.66;6248651;22;20171;-79
2022/03/16 11:53:51;;;;;;;28.17;16.80;;;;;;;7.28;52.11;97655.75;6227868;22;20200;-82
2022/03/16 11:56:23;;;;;;;29.70;17.23;;;;;;;7.23;52.15;97643.88;6230257;22;20156;-89
2022/03/16 11:59:02;;;;;;;26.33;16.60;;;;;;;7.07;52.69;97621.91;6280661;22;20219;-81
2022/03/16 12:01:37;;;;;;;28.70;18.47;;;;;;;7.20;52.44;97652.53;6227281;22;20167;-85
2022/03/16 12:04:19;;;;;;;30.43;19.00;;;;;;;7.06;51.81;97627.97;6219652;22;20221;-81
2022/03/16 12:06:51;;;;;;;29.80;18.33;;;;;;;7.18;51.29;97653.44;6244245;22;20172;-81
2022/03/16 12:09:46;;;;;;;38.00;18.30;;;;;;;6.53;51.95;97547.63;6246071;22;20510;-89
2022/03/16 12:15:11;;;;;;;26.23;17.03;;;;;;;6.90;53.16;97642.06;6271637;22;20180;-82